TAP219 DNMM-LPPT
Flight info
| Callsign | TAP219 |
|---|---|
| Flight time | N/A |
| Altitude | 36000 |
| Route | ILKEL1Q ILKEL UR981 BAKAB UM629 BIDUX/N0479F380 UM629 BAGBO UJ744 OZT UW900 SAK UR722 AMSEL DCT VATZI |
| Aircraft | A339/H-SADE1E2E3GHIJ3J5M1P2RWXY/LB2D1 |
Departure
| Time | 2026-05-09 12:08 |
|---|---|
| Airport | Murtala Muhammed International Airport (DNMM) |
Arrival
| Time | N/A |
|---|---|
| Airport | Lisbon Humberto Delgado Airport (LPPT) |
| Time | Latitude | Longitude | Altitude | Speed | Heading |
|---|---|---|---|---|---|
| 2026-05-09 11:51 | 6.58002 | 3.31908 | 102 ft | 0 kts | 67° |
| 2026-05-09 11:57 | 6.58002 | 3.31907 | 102 ft | 0 kts | 67° |
| 2026-05-09 11:57 | 6.57999 | 3.31901 | 102 ft | 2 kts | 67° |
| 2026-05-09 11:57 | 6.57993 | 3.31887 | 102 ft | 2 kts | 66° |
| 2026-05-09 11:57 | 6.57988 | 3.31873 | 101 ft | 2 kts | 67° |
| 2026-05-09 11:58 | 6.57983 | 3.31862 | 101 ft | 0 kts | 67° |
| 2026-05-09 11:58 | 6.57977 | 3.31850 | 101 ft | 2 kts | 49° |
| 2026-05-09 11:58 | 6.57965 | 3.31841 | 101 ft | 2 kts | 24° |
| 2026-05-09 11:58 | 6.57951 | 3.31837 | 101 ft | 2 kts | 1° |
| 2026-05-09 11:59 | 6.57936 | 3.31838 | 102 ft | 1 kts | 340° |
| 2026-05-09 11:59 | 6.57931 | 3.31841 | 103 ft | 0 kts | 336° |
| 2026-05-09 12:01 | 6.57932 | 3.31840 | 103 ft | 2 kts | 336° |
| 2026-05-09 12:01 | 6.57978 | 3.31820 | 99 ft | 11 kts | 336° |
| 2026-05-09 12:02 | 6.58069 | 3.31780 | 94 ft | 16 kts | 334° |
| 2026-05-09 12:02 | 6.58099 | 3.31680 | 90 ft | 17 kts | 246° |
| 2026-05-09 12:02 | 6.58067 | 3.31557 | 85 ft | 19 kts | 296° |
| 2026-05-09 12:02 | 6.58195 | 3.31525 | 81 ft | 20 kts | 0° |
| 2026-05-09 12:03 | 6.58344 | 3.31522 | 78 ft | 21 kts | 358° |
| 2026-05-09 12:03 | 6.58500 | 3.31519 | 75 ft | 22 kts | 358° |
| 2026-05-09 12:03 | 6.58656 | 3.31517 | 75 ft | 21 kts | 359° |
| 2026-05-09 12:03 | 6.58794 | 3.31494 | 77 ft | 18 kts | 317° |
| 2026-05-09 12:04 | 6.58809 | 3.31435 | 80 ft | 0 kts | 271° |
| 2026-05-09 12:06 | 6.58809 | 3.31412 | 80 ft | 9 kts | 265° |
| 2026-05-09 12:07 | 6.58749 | 3.31331 | 83 ft | 19 kts | 210° |
| 2026-05-09 12:07 | 6.58642 | 3.31315 | 81 ft | 14 kts | 180° |
| 2026-05-09 12:07 | 6.58395 | 3.31317 | 77 ft | 65 kts | 179° |
| 2026-05-09 12:07 | 6.57745 | 3.31326 | 81 ft | 120 kts | 179° |
| 2026-05-09 12:08 | 6.56744 | 3.31339 | 85 ft | 166 kts | 179° |
| 2026-05-09 12:08 | 6.55513 | 3.31360 | 402 ft | 177 kts | 180° |
| 2026-05-09 12:08 | 6.54263 | 3.31382 | 885 ft | 180 kts | 179° |
| 2026-05-09 12:08 | 6.53021 | 3.31388 | 1410 ft | 181 kts | 191° |
| 2026-05-09 12:09 | 6.51954 | 3.30789 | 1859 ft | 180 kts | 232° |
| 2026-05-09 12:09 | 6.51478 | 3.29603 | 2071 ft | 192 kts | 266° |
| 2026-05-09 12:09 | 6.51468 | 3.28201 | 2335 ft | 206 kts | 269° |
| 2026-05-09 12:10 | 6.52072 | 3.23880 | 3715 ft | 218 kts | 313° |
| 2026-05-09 12:10 | 6.53327 | 3.23042 | 4094 ft | 225 kts | 347° |
| 2026-05-09 12:10 | 6.54946 | 3.22913 | 4379 ft | 239 kts | 1° |
| 2026-05-09 12:11 | 6.56677 | 3.22927 | 4666 ft | 255 kts | 1° |